Weather at Sydney Kingsford Smith International Airport

Public forecast

Using degrees Celsius for public forecast. Weather courtesy of forecast.io.

Current aviation weather report (METAR) for Sydney Kingsford Smith International Airport

Report is more than 6 hours old.

2022/11/14 15:30 (retrieved 2 years ago)

YSSY 141530Z 29007KT CAVOK 18/10 Q1005

Aviation forecast (TAF) for Sydney Kingsford Smith International Airport

Forecast is more than 12 hours old.

2023/02/22 18:36 (retrieved 1 year ago)

TAF YSSY 221721Z 2218/2400 13010KT 9999 -SHRA SCT025 FM230000 11012KT 9999 NSW SCT030 FM231200 10007KT 9999 SCT025